createdAt,value
2023-01-29T18:01:34.269Z,23.95
2023-01-29T18:04:00.934Z,19.33
2023-01-29T18:06:29.694Z,21.60
2023-01-29T18:08:56.668Z,21.83
2023-01-29T18:11:23.461Z,23.33
2023-01-29T18:13:50.059Z,21.95
2023-01-29T18:16:18.455Z,21.08
2023-01-29T18:18:45.156Z,23.33
2023-01-29T18:21:11.716Z,23.40
2023-01-29T18:23:38.307Z,26.02
2023-01-29T18:26:05.946Z,21.95
2023-01-29T18:28:32.993Z,23.85
2023-01-29T18:31:03.775Z,18.83
2023-01-29T18:33:31.064Z,23.85
2023-01-29T18:35:58.379Z,23.05
2023-01-29T18:38:25.064Z,21.80
2023-01-29T18:40:51.649Z,23.48
2023-01-29T18:43:18.374Z,22.27
2023-01-29T18:45:45.026Z,20.50
2023-01-29T18:48:11.709Z,24.63
2023-01-29T18:50:38.231Z,23.88
2023-01-29T18:53:04.912Z,23.45
2023-01-29T18:55:31.538Z,26.08
2023-01-29T18:58:33.981Z,19.23
2023-01-29T19:00:47.216Z,20.73
2023-01-29T19:03:13.820Z,23.50
2023-01-29T19:05:40.407Z,22.17
2023-01-29T19:08:07.676Z,23.02
2023-01-29T19:10:34.442Z,20.85
2023-01-29T19:13:01.252Z,22.55
2023-01-29T19:15:28.093Z,22.63
2023-01-29T19:17:54.778Z,24.02
2023-01-29T19:20:21.677Z,24.58
2023-01-29T19:22:48.566Z,25.85
2023-01-29T19:25:16.150Z,24.80
2023-01-29T19:27:43.382Z,26.02
2023-01-29T19:30:12.655Z,24.27
2023-01-29T19:32:40.644Z,28.00
2023-01-29T19:35:07.411Z,22.92
2023-01-29T19:37:34.019Z,23.88
2023-01-29T19:40:00.665Z,29.30
2023-01-29T19:42:27.993Z,24.30
2023-01-29T19:44:54.698Z,24.73
2023-01-29T19:47:21.328Z,22.88
2023-01-29T19:49:47.944Z,26.65
2023-01-29T19:52:49.746Z,28.58
2023-01-29T19:55:18.411Z,32.10
2023-01-29T19:57:45.311Z,33.10
2023-01-29T20:00:12.584Z,33.55
2023-01-29T20:02:39.192Z,31.42
2023-01-29T20:05:07.808Z,36.90
2023-01-29T20:07:35.926Z,34.42
2023-01-29T20:10:02.661Z,34.75
2023-01-29T20:12:29.867Z,33.72
2023-01-29T20:14:56.556Z,32.55
2023-01-29T20:17:23.310Z,34.95
2023-01-29T20:19:49.902Z,37.38
2023-01-29T20:22:16.487Z,32.47
2023-01-29T20:24:43.282Z,33.83
2023-01-29T20:27:10.710Z,31.85
2023-01-29T20:29:38.286Z,34.20
2023-01-29T20:32:07.926Z,33.90
2023-01-29T20:34:35.058Z,38.38
2023-01-29T20:37:01.866Z,34.47
2023-01-29T20:39:28.556Z,34.10
2023-01-29T20:41:57.094Z,35.45
2023-01-29T20:44:24.857Z,34.95
2023-01-29T20:46:51.865Z,35.55
2023-01-29T20:49:19.498Z,37.00
2023-01-29T20:51:46.193Z,35.85
2023-01-29T20:54:13.157Z,32.67
2023-01-29T20:56:43.202Z,34.47
2023-01-29T20:59:11.196Z,36.28
2023-01-29T21:01:37.856Z,41.20
2023-01-29T21:04:04.530Z,39.83
2023-01-29T21:06:31.271Z,39.97
2023-01-29T21:08:57.865Z,37.97
2023-01-29T21:11:24.481Z,43.15
2023-01-29T21:13:54.728Z,38.67
2023-01-29T21:16:21.310Z,40.15
2023-01-29T21:18:47.950Z,35.55
2023-01-29T21:21:14.521Z,30.50
2023-01-29T21:23:41.086Z,31.80
2023-01-29T21:26:07.932Z,33.58
2023-01-29T21:28:34.748Z,29.13
2023-01-29T21:31:12.467Z,33.60
2023-01-29T21:33:39.073Z,30.33
2023-01-29T21:36:06.226Z,29.92
2023-01-29T21:38:32.928Z,30.35
2023-01-29T21:41:01.251Z,27.25
2023-01-29T21:43:27.824Z,31.25
2023-01-29T21:45:59.165Z,31.13
2023-01-29T21:48:26.319Z,31.48
2023-01-29T21:50:53.085Z,32.22
2023-01-29T21:53:19.708Z,32.50
2023-01-29T21:55:46.850Z,29.17
2023-01-29T21:58:14.661Z,31.45
2023-01-29T22:00:41.412Z,30.27
2023-01-29T22:03:08.090Z,32.60
2023-01-29T22:05:34.859Z,32.17
2023-01-29T22:08:01.556Z,31.90
2023-01-29T22:10:28.843Z,32.42
2023-01-29T22:12:55.526Z,33.97
2023-01-29T22:15:23.912Z,31.55
2023-01-29T22:17:51.039Z,33.42
2023-01-29T22:20:18.856Z,35.92
2023-01-29T22:22:45.736Z,32.90
2023-01-29T22:25:12.596Z,34.75
2023-01-29T22:27:39.114Z,32.20
2023-01-29T22:30:06.466Z,32.80
2023-01-29T22:32:33.169Z,33.25
2023-01-29T22:34:59.892Z,30.80
2023-01-29T22:37:26.456Z,33.90
2023-01-29T22:39:53.041Z,33.33
2023-01-29T22:42:20.510Z,33.00
2023-01-29T22:44:48.096Z,31.85
2023-01-29T22:47:14.846Z,33.28
2023-01-29T22:49:41.454Z,33.28
2023-01-29T22:52:11.051Z,32.10
2023-01-29T22:54:39.975Z,31.80
2023-01-29T22:57:06.794Z,29.90
2023-01-29T22:59:33.760Z,30.48
2023-01-29T23:02:00.445Z,30.45
2023-01-29T23:04:27.321Z,29.08
2023-01-29T23:06:53.979Z,30.65
2023-01-29T23:09:20.547Z,30.13
2023-01-29T23:11:47.103Z,29.45
2023-01-29T23:14:13.859Z,31.17
2023-01-29T23:16:40.513Z,32.17
2023-01-29T23:19:07.674Z,30.05
2023-01-29T23:21:34.255Z,31.65
2023-01-29T23:24:01.263Z,30.52
2023-01-29T23:26:47.349Z,30.00
2023-01-29T23:29:14.471Z,30.30
2023-01-29T23:31:41.211Z,27.38
2023-01-29T23:34:07.903Z,28.33
2023-01-29T23:36:34.517Z,29.67
2023-01-29T23:39:01.131Z,28.98
2023-01-29T23:41:27.703Z,31.27
2023-01-29T23:43:54.378Z,30.35
2023-01-29T23:46:21.057Z,29.98
2023-01-29T23:48:47.644Z,32.85
2023-01-29T23:51:14.287Z,30.05
2023-01-29T23:53:41.012Z,28.65
2023-01-29T23:56:08.164Z,30.02
2023-01-29T23:58:35.068Z,30.30
